ADDS METAR Data INFO
IDs: Format: Raw Decoded Include TAF

Data at: 0208 UTC 14 Dec 2017

KSYM 140155Z AUTO 22017G24KT 10SM OVC050 07/M09 A2956 RMK AO2
KSYM 140135Z AUTO 22020G29KT 10SM OVC055 06/M10 A2956 RMK AO2
KSYM 140115Z AUTO 23016G25KT 10SM OVC055 06/M10 A2956 RMK AO2
KSYM 140055Z AUTO 23019G30KT 10SM OVC055 06/M11 A2957 RMK AO2
KSYM 140035Z AUTO 22017G28KT 10SM OVC050 06/M11 A2957 RMK AO2
KSYM 140015Z AUTO 23020G30KT 10SM OVC050 06/M12 A2956 RMK AO2
KSYM 132355Z AUTO 22019G28KT 10SM BKN055 OVC065 06/M14 A2956 RMK AO2
KSYM 132335Z AUTO 22016G27KT 10SM BKN055 OVC070 05/M15 A2954 RMK AO2
KSYM 132315Z AUTO 22013G23KT 10SM OVC060 05/M15 A2956 RMK AO2
KSYM 132255Z AUTO 22011KT 10SM SCT060 SCT090 SCT110 04/M15 A2956 RMK AO2
KSYM 132235Z AUTO 22008KT 10SM CLR 03/M15 A2956 RMK AO2
KSYM 132215Z AUTO 21011KT 10SM CLR 04/M15 A2956 RMK AO2
KSYM 132155Z AUTO 20007KT 10SM CLR 03/M16 A2956 RMK AO2
KSYM 132135Z AUTO 19008G13KT 10SM FEW110 04/M16 A2955 RMK AO2
KSYM 132115Z AUTO 18009G16KT 160V220 10SM BKN100 04/M16 A2956 RMK AO2
KSYM 132055Z AUTO 18009G14KT 150V210 10SM BKN100 04/M16 A2957 RMK AO2
KSYM 132035Z AUTO 17009G19KT 10SM SCT095 04/M17 A2957 RMK AO2
KSYM 132015Z AUTO 18009G14KT 10SM BKN095 03/M17 A2960 RMK AO2
KSYM 131955Z AUTO 20011G16KT 10SM OVC090 04/M17 A2964 RMK AO2
KSYM 131935Z AUTO 19011KT 150V210 10SM BKN085 03/M17 A2963 RMK AO2
KSYM 131915Z AUTO 20012G19KT 10SM SCT060 BKN080 03/M17 A2966 RMK AO2
KSYM 131855Z AUTO 19009G16KT 150V220 10SM OVC060 03/M17 A2969 RMK AO2
KSYM 131835Z AUTO 20010KT 10SM OVC065 02/M17 A2973 RMK AO2
KSYM 131815Z AUTO 20011KT 10SM OVC065 02/M17 A2974 RMK AO2
KSYM 131755Z AUTO 21012KT 10SM OVC065 02/M17 A2976 RMK AO2
KSYM 131735Z AUTO 21010G16KT 10SM SCT070 SCT080 02/M16 A2979 RMK AO2
KSYM 131715Z AUTO 19008G15KT 10SM FEW080 FEW120 02/M16 A2981 RMK AO2
KSYM 131655Z AUTO 19009G15KT 160V220 10SM SCT120 01/M16 A2983 RMK AO2
KSYM 131635Z AUTO 21013G18KT 10SM SCT120 01/M16 A2985 RMK AO2
KSYM 131615Z AUTO 21009G16KT 10SM CLR M00/M16 A2988 RMK AO2
KSYM 131555Z AUTO 19009KT 10SM CLR M01/M15 A2989 RMK AO2
KSYM 131535Z AUTO 20009KT 10SM CLR M02/M14 A2991 RMK AO2
KSYM 131515Z AUTO 20008G15KT 10SM CLR M03/M14 A2992 RMK AO2
KSYM 131455Z AUTO 20008KT 10SM CLR M04/M14 A2993 RMK AO2
KSYM 131435Z AUTO 20009G14KT 10SM SCT080 M04/M14 A2994 RMK AO2
KSYM 131415Z AUTO 18007KT 150V210 10SM OVC080 M05/M14 A2995 RMK AO2
KSYM 131355Z AUTO 18006KT 10SM FEW037 OVC080 M06/M14 A2996 RMK AO2
KSYM 131335Z AUTO 18004KT 10SM FEW037 BKN047 OVC080 M06/M13 A2997 RMK AO2
KSYM 131315Z AUTO 18005KT 10SM BKN047 M07/M13 A2997 RMK AO2
KSYM 131255Z AUTO 20003KT 10SM CLR M08/M13 A2998 RMK AO2
KSYM 131235Z AUTO 21006KT 10SM FEW037 M08/M14 A2997 RMK AO2
KSYM 131215Z AUTO 21006KT 10SM BKN038 BKN080 M08/M14 A2999 RMK AO2
KSYM 131155Z AUTO 21006KT 10SM SCT037 SCT044 BKN080 M08/M13 A2998 RMK AO2
KSYM 131135Z AUTO 22006KT 10SM FEW044 M08/M14 A2998 RMK AO2
KSYM 131115Z AUTO 22005KT 10SM CLR M08/M14 A2998 RMK AO2
KSYM 131055Z AUTO 20006KT 10SM FEW045 M09/M14 A2998 RMK AO2
KSYM 131035Z AUTO 20005KT 10SM SCT045 M09/M14 A2998 RMK AO2
KSYM 131015Z AUTO 22005KT 10SM FEW050 M07/M15 A2998 RMK AO2
KSYM 130955Z AUTO 24006KT 10SM FEW050 M07/M15 A2998 RMK AO2
KSYM 130935Z AUTO 25006KT 10SM CLR M07/M15 A2999 RMK AO2
KSYM 130915Z AUTO 25006KT 10SM CLR M07/M15 A2999 RMK AO2
KSYM 130855Z AUTO 24007KT 10SM CLR M07/M15 A2999 RMK AO2
KSYM 130835Z AUTO 25005KT 10SM CLR M07/M15 A3000 RMK AO2
KSYM 130815Z AUTO 25006KT 10SM CLR M07/M15 A3000 RMK AO2
KSYM 130755Z AUTO 25004G11KT 10SM CLR M07/M15 A3000 RMK AO2
KSYM 130735Z AUTO 26005G12KT 10SM CLR M07/M15 A3001 RMK AO2
KSYM 130715Z AUTO 24006KT 10SM CLR M07/M15 A2999 RMK AO2
KSYM 130655Z AUTO 25004KT 10SM CLR M07/M15 A2999 RMK AO2
KSYM 130635Z AUTO 25005KT 10SM CLR M07/M14 A3000 RMK AO2
KSYM 130615Z AUTO 26004KT 10SM CLR M07/M15 A3000 RMK AO2
KSYM 130555Z AUTO 25004KT 10SM CLR M07/M15 A3000 RMK AO2
KSYM 130535Z AUTO 28004KT 10SM CLR M07/M15 A3001 RMK AO2
KSYM 130515Z AUTO 26004KT 10SM CLR M07/M15 A3001 RMK AO2
KSYM 130455Z AUTO 29005KT 10SM CLR M07/M15 A3002 RMK AO2
KSYM 130435Z AUTO 28004KT 10SM FEW043 M06/M15 A3002 RMK AO2
KSYM 130415Z AUTO 28004KT 10SM SCT044 M06/M15 A3002 RMK AO2
KSYM 130355Z AUTO 28005KT 10SM SCT046 M06/M15 A3002 RMK AO2
KSYM 130335Z AUTO 28004KT 10SM FEW044 M06/M15 A3002 RMK AO2
KSYM 130315Z AUTO 28005G11KT 10SM SCT046 M06/M15 A3002 RMK AO2
KSYM 130255Z AUTO VRB04KT 10SM SCT048 M06/M15 A3002 RMK AO2
KSYM 130235Z AUTO 29004KT 10SM FEW048 M06/M15 A3002 RMK AO2
KSYM 130215Z AUTO 29005KT 10SM FEW048 M06/M15 A3001 RMK AO2
KSYM 130155Z AUTO 30004G10KT 10SM FEW048 M05/M15 A3001 RMK AO2
KSYM 130135Z AUTO 31011G16KT 10SM CLR M05/M15 A3001 RMK AO2
KSYM 130115Z AUTO 31008G13KT 10SM CLR M05/M15 A3001 RMK AO2
KSYM 130055Z AUTO 31010KT 10SM CLR M05/M14 A3001 RMK AO2
KSYM 130035Z AUTO 31010KT 10SM FEW055 M04/M14 A3000 RMK AO2
KSYM 130015Z AUTO 31008KT 10SM CLR M04/M14 A3000 RMK AO2
KSYM 122355Z AUTO 31011KT 10SM CLR M04/M14 A2999 RMK AO2
KSYM 122335Z AUTO 31012G20KT 10SM CLR M04/M14 A2998 RMK AO2
KSYM 122315Z AUTO 31006G11KT 10SM FEW060 M04/M14 A2997 RMK AO2
KSYM 122255Z AUTO 31010G20KT 10SM SCT055 M03/M15 A2996 RMK AO2
KSYM 122235Z AUTO 31011G17KT 10SM FEW060 M03/M15 A2996 RMK AO2
KSYM 122215Z AUTO 29011G25KT 260V320 10SM FEW050 BKN055 M02/M15 A2995 RMK AO2
KSYM 122155Z AUTO 31015G21KT 10SM SCT050 OVC055 M02/M14 A2995 RMK AO2
KSYM 122135Z AUTO 31014G23KT 10SM BKN050 OVC060 M02/M15 A2994 RMK AO2
KSYM 122115Z AUTO 30015KT 10SM OVC050 M01/M14 A2994 RMK AO2
KSYM 122055Z AUTO 31015G23KT 10SM OVC050 M01/M14 A2993 RMK AO2
KSYM 122035Z AUTO 30013G19KT 10SM BKN050 BKN060 M01/M14 A2993 RMK AO2
KSYM 122015Z AUTO 29013G27KT 10SM FEW040 BKN050 OVC060 M01/M14 A2992 RMK AO2
KSYM 121955Z AUTO 31013G21KT 10SM FEW040 BKN050 OVC060 M02/M12 A2992 RMK AO2
KSYM 121935Z AUTO 31013G19KT 10SM BKN048 OVC060 M01/M10 A2992 RMK AO2
KSYM 121915Z AUTO 33010G25KT 290V350 9SM -UP FEW040 BKN046 OVC055 M01/M09 A2991 RMK AO2
KSYM 121855Z AUTO 30017G24KT 10SM FEW039 SCT047 BKN050 01/M12 A2990 RMK AO2
KSYM 121835Z AUTO 30015G24KT 10SM SCT040 BKN047 BKN055 M00/M10 A2990 RMK AO2
KSYM 121815Z AUTO 30014G22KT 10SM FEW034 BKN042 BKN048 00/M10 A2990 RMK AO2
KSYM 121755Z AUTO 30018G25KT 10SM BKN032 BKN040 OVC049 M01/M10 A2991 RMK AO2
KSYM 121735Z AUTO 30016G24KT 10SM FEW024 BKN031 OVC047 M01/M08 A2991 RMK AO2
KSYM 121715Z AUTO 31015G20KT 9SM -RA FEW013 SCT039 BKN046 M02/M05 A2992 RMK AO2
KSYM 121655Z AUTO 31018G26KT 1SM -SN SCT013 BKN021 OVC070 M02/M05 A2992 RMK AO2
KSYM 121635Z AUTO 31018G23KT 10SM BKN026 BKN030 BKN065 00/M06 A2991 RMK AO2
KSYM 121615Z AUTO 30008G19KT 280V340 10SM BKN025 OVC055 00/M06 A2992 RMK AO2
KSYM 121555Z AUTO 30014G20KT 260V320 10SM -SN SCT021 BKN047 OVC055 M00/M05 A2992 RMK AO2
KSYM 121535Z AUTO 30012G21KT 7SM -SN FEW030 BKN040 BKN045 M00/M05 A2992 RMK AO2
KSYM 121515Z AUTO 31016G27KT 7SM -RA FEW022 SCT030 OVC039 M00/M05 A2992 RMK AO2
KSYM 121455Z AUTO 30018G29KT 10SM -RA SCT021 BKN042 OVC050 01/M04 A2990 RMK AO2
KSYM 121435Z AUTO 30018G25KT 10SM -RA SCT015 BKN041 OVC055 01/M03 A2989 RMK AO2
KSYM 121415Z AUTO 31012G21KT 10SM -RA BKN014 OVC019 01/M02 A2989 RMK AO2